createdAt,value
2018-11-14T00:01:15.830Z,23.07
2018-11-14T00:03:43.535Z,23.00
2018-11-14T00:06:11.268Z,24.27
2018-11-14T00:08:39.027Z,25.03
2018-11-14T00:11:06.734Z,24.33
2018-11-14T00:13:34.405Z,25.73
2018-11-14T00:16:02.117Z,26.57
2018-11-14T00:18:29.805Z,27.47
2018-11-14T00:20:57.523Z,27.80
2018-11-14T00:23:25.218Z,25.07
2018-11-14T00:25:52.988Z,29.20
2018-11-14T00:28:20.757Z,27.63
2018-11-14T00:30:48.438Z,27.50
2018-11-14T00:33:16.473Z,27.97
2018-11-14T00:35:44.021Z,26.83
2018-11-14T00:38:11.666Z,24.47
2018-11-14T00:40:39.417Z,22.80
2018-11-14T00:43:07.116Z,26.03
2018-11-14T00:45:34.861Z,23.00
2018-11-14T00:48:02.562Z,22.20
2018-11-14T00:50:30.283Z,24.83
2018-11-14T00:52:58.025Z,19.57
2018-11-14T00:55:25.709Z,22.47
2018-11-14T00:57:53.457Z,25.63
2018-11-14T01:00:23.447Z,25.50
2018-11-14T01:02:51.245Z,25.90
2018-11-14T01:05:25.750Z,25.00
2018-11-14T01:07:53.483Z,25.50
2018-11-14T01:10:22.012Z,27.23
2018-11-14T01:12:50.348Z,26.43
2018-11-14T01:15:19.327Z,24.90
2018-11-14T01:17:46.979Z,25.60
2018-11-14T01:20:15.911Z,25.10
2018-11-14T01:22:44.010Z,25.83
2018-11-14T01:25:12.710Z,25.20
2018-11-14T01:27:40.644Z,25.90
2018-11-14T01:30:12.446Z,25.23
2018-11-14T01:32:40.127Z,24.77
2018-11-14T01:35:08.042Z,24.57
2018-11-14T01:37:35.753Z,23.70
2018-11-14T01:40:04.299Z,24.87
2018-11-14T01:42:31.981Z,24.00
2018-11-14T01:45:05.971Z,23.57
2018-11-14T01:47:33.907Z,21.73
2018-11-14T01:50:02.125Z,23.20
2018-11-14T01:52:29.807Z,23.87
2018-11-14T01:54:57.533Z,21.73
2018-11-14T01:57:25.728Z,22.83
2018-11-14T01:59:53.875Z,23.60
2018-11-14T02:02:21.575Z,23.43
2018-11-14T02:04:49.699Z,21.33
2018-11-14T02:07:17.345Z,23.00
2018-11-14T02:09:45.115Z,22.80
2018-11-14T02:12:12.891Z,21.37
2018-11-14T02:14:40.803Z,20.57
2018-11-14T02:17:08.466Z,21.00
2018-11-14T02:19:36.428Z,15.93
2018-11-14T02:22:04.391Z,13.27
2018-11-14T02:24:32.120Z,13.03
2018-11-14T02:26:59.788Z,12.47
2018-11-14T02:29:27.567Z,12.47
2018-11-14T02:31:55.267Z,12.27
2018-11-14T02:34:22.929Z,11.93
2018-11-14T02:39:25.094Z,13.97
2018-11-14T02:41:52.758Z,16.33
2018-11-14T02:44:20.404Z,16.50
2018-11-14T02:46:48.105Z,18.33
2018-11-14T02:49:15.786Z,18.47
2018-11-14T02:51:43.467Z,20.60
2018-11-14T02:54:11.153Z,21.47
2018-11-14T02:56:38.842Z,20.73
2018-11-14T02:59:06.526Z,20.80
2018-11-14T03:01:34.226Z,20.53
2018-11-14T03:04:01.891Z,21.37
2018-11-14T03:06:29.546Z,22.57
2018-11-14T03:08:57.252Z,22.67
2018-11-14T03:11:24.925Z,19.67
2018-11-14T03:13:52.587Z,22.90
2018-11-14T03:16:20.270Z,24.93
2018-11-14T03:18:47.914Z,24.10
2018-11-14T03:21:15.552Z,24.00
2018-11-14T03:23:43.235Z,23.93
2018-11-14T03:26:10.910Z,23.67
2018-11-14T03:28:38.542Z,23.10
2018-11-14T03:31:06.331Z,21.63
2018-11-14T03:33:34.025Z,24.30
2018-11-14T03:36:07.481Z,24.27
2018-11-14T03:38:35.134Z,23.30
2018-11-14T03:41:02.773Z,23.67
2018-11-14T03:43:30.460Z,23.33
2018-11-14T03:45:58.136Z,24.73
2018-11-14T03:48:25.803Z,23.63
2018-11-14T03:50:53.507Z,21.90
2018-11-14T03:53:21.190Z,25.47
2018-11-14T03:55:48.842Z,22.80
2018-11-14T03:58:16.598Z,23.10
2018-11-14T04:00:44.234Z,22.63
2018-11-14T04:03:12.118Z,23.17
2018-11-14T04:05:39.899Z,23.13
2018-11-14T04:08:07.534Z,22.10
2018-11-14T04:10:35.174Z,21.47
2018-11-14T04:13:02.851Z,21.97
2018-11-14T04:15:30.518Z,18.07
2018-11-14T04:17:58.180Z,22.00
2018-11-14T04:20:25.882Z,21.27
2018-11-14T04:22:53.590Z,22.73
2018-11-14T04:25:21.261Z,19.87
2018-11-14T04:27:49.306Z,20.63
2018-11-14T04:30:18.132Z,23.20
2018-11-14T04:32:45.777Z,20.17
2018-11-14T04:35:15.386Z,22.23
2018-11-14T04:37:43.052Z,22.30
2018-11-14T04:40:12.590Z,20.77
2018-11-14T04:42:40.309Z,21.77
2018-11-14T04:45:10.990Z,22.30
2018-11-14T04:47:38.759Z,20.77
2018-11-14T04:50:08.783Z,21.40
2018-11-14T04:52:36.468Z,19.23
2018-11-14T04:55:04.652Z,20.53
2018-11-14T04:57:32.326Z,19.80
2018-11-14T04:59:59.962Z,18.87
2018-11-14T05:02:27.626Z,17.77
2018-11-14T05:04:55.318Z,20.30
2018-11-14T05:07:22.991Z,16.60
2018-11-14T05:09:50.646Z,17.43
2018-11-14T05:12:18.346Z,17.57
2018-11-14T05:14:45.978Z,17.53
2018-11-14T05:17:13.664Z,17.63
2018-11-14T05:19:41.374Z,17.83
2018-11-14T05:22:09.034Z,18.70
2018-11-14T05:24:36.759Z,20.37
2018-11-14T05:27:04.950Z,18.77
2018-11-14T05:29:32.630Z,19.67
2018-11-14T05:32:00.455Z,19.77
2018-11-14T05:34:28.130Z,20.63
2018-11-14T05:36:55.900Z,20.50
2018-11-14T05:39:23.576Z,18.77
2018-11-14T05:41:51.270Z,18.97
2018-11-14T05:44:18.958Z,14.17
2018-11-14T05:46:46.666Z,19.77
2018-11-14T05:49:14.386Z,20.13
2018-11-14T05:51:42.046Z,19.47
2018-11-14T05:54:09.706Z,19.90
2018-11-14T05:56:37.399Z,21.00
2018-11-14T05:59:05.074Z,21.10
2018-11-14T06:01:32.726Z,21.23
2018-11-14T06:04:00.424Z,22.00
2018-11-14T06:06:28.090Z,22.93
2018-11-14T06:08:55.747Z,20.83
2018-11-14T06:11:23.456Z,21.40
2018-11-14T06:13:51.100Z,21.60
2018-11-14T06:16:18.750Z,20.00
2018-11-14T06:18:46.998Z,19.97
2018-11-14T06:21:15.694Z,20.43
2018-11-14T06:23:43.529Z,19.23
2018-11-14T06:26:12.696Z,20.53
2018-11-14T06:28:42.582Z,21.47
2018-11-14T06:31:10.229Z,19.80
2018-11-14T06:33:38.042Z,20.77
2018-11-14T06:36:05.746Z,21.33
2018-11-14T06:38:33.442Z,22.53
2018-11-14T06:41:01.130Z,21.57
2018-11-14T06:43:28.814Z,21.97
2018-11-14T06:45:56.466Z,20.73
2018-11-14T06:48:24.146Z,21.87
2018-11-14T06:50:51.787Z,23.23
2018-11-14T06:53:19.506Z,21.23
2018-11-14T06:55:47.175Z,22.40
2018-11-14T06:58:14.843Z,22.00
2018-11-14T07:00:42.533Z,21.37
2018-11-14T07:03:10.301Z,21.10
2018-11-14T07:05:37.965Z,21.90
2018-11-14T07:08:05.910Z,21.83
2018-11-14T07:10:34.946Z,20.97
2018-11-14T07:13:06.731Z,20.57
2018-11-14T07:15:34.950Z,21.23
2018-11-14T07:18:02.758Z,19.73
2018-11-14T07:20:31.786Z,21.57
2018-11-14T07:22:59.510Z,20.50
2018-11-14T07:25:27.203Z,23.13
2018-11-14T07:27:54.852Z,30.33
2018-11-14T07:30:24.562Z,21.63
2018-11-14T07:32:54.644Z,19.73
2018-11-14T07:35:22.290Z,21.50
2018-11-14T07:38:42.772Z,25.80
2018-11-14T07:41:12.787Z,20.77
2018-11-14T07:43:41.162Z,19.23
2018-11-14T07:46:09.584Z,18.87
2018-11-14T07:48:37.707Z,21.03
2018-11-14T07:51:05.791Z,20.13
2018-11-14T07:53:33.839Z,18.17
2018-11-14T07:56:01.654Z,19.33
2018-11-14T07:58:29.634Z,18.73
2018-11-14T08:00:57.571Z,18.03
2018-11-14T08:03:25.286Z,19.57
2018-11-14T08:05:53.406Z,17.70
2018-11-14T08:08:21.245Z,18.03
2018-11-14T08:10:48.844Z,18.57
2018-11-14T08:13:19.567Z,18.63
2018-11-14T08:15:48.564Z,18.90
2018-11-14T08:18:16.280Z,18.53
2018-11-14T08:20:43.998Z,19.53
2018-11-14T08:23:11.753Z,17.93
2018-11-14T08:25:39.820Z,19.00
2018-11-14T08:28:07.797Z,19.67
2018-11-14T08:30:35.788Z,17.63
2018-11-14T08:33:03.539Z,17.77
2018-11-14T08:35:31.371Z,19.33
2018-11-14T08:37:59.125Z,18.17
2018-11-14T08:40:34.404Z,19.10
2018-11-14T08:43:02.131Z,15.87
2018-11-14T08:45:29.839Z,18.93
2018-11-14T08:47:57.500Z,19.80
2018-11-14T08:50:25.264Z,18.47
2018-11-14T08:52:52.913Z,15.77
2018-11-14T08:55:20.606Z,18.23
2018-11-14T08:57:48.361Z,17.10
2018-11-14T09:00:19.453Z,16.63
2018-11-14T09:02:47.824Z,18.43
2018-11-14T09:05:16.096Z,18.17
2018-11-14T09:07:43.975Z,15.83
2018-11-14T09:10:22.603Z,16.20
2018-11-14T09:12:50.441Z,16.17
2018-11-14T09:15:19.225Z,16.47
2018-11-14T09:17:47.163Z,16.33
2018-11-14T09:20:16.387Z,16.87
2018-11-14T09:22:44.376Z,17.10
2018-11-14T09:25:17.912Z,16.83
2018-11-14T09:27:45.704Z,16.77
2018-11-14T09:30:18.688Z,15.17
2018-11-14T09:32:46.421Z,15.97
2018-11-14T09:35:16.264Z,15.83
2018-11-14T09:37:44.171Z,14.70
2018-11-14T09:40:14.860Z,15.70
2018-11-14T09:42:42.568Z,13.57
2018-11-14T09:45:13.463Z,13.60
2018-11-14T09:47:41.218Z,16.03
2018-11-14T09:50:11.608Z,16.07
2018-11-14T09:52:39.443Z,15.53
2018-11-14T09:55:08.520Z,16.87
2018-11-14T09:57:36.664Z,16.93
2018-11-14T10:00:07.224Z,17.03
2018-11-14T10:02:35.024Z,15.53
2018-11-14T10:05:02.748Z,15.60
2018-11-14T10:07:30.545Z,15.00
2018-11-14T10:09:58.264Z,14.57
2018-11-14T10:12:25.995Z,16.83
2018-11-14T10:14:53.814Z,16.43
2018-11-14T10:17:21.520Z,16.37
2018-11-14T10:19:49.282Z,17.03
2018-11-14T10:22:17.036Z,14.67
2018-11-14T10:24:44.877Z,16.67
2018-11-14T10:27:12.600Z,17.47
2018-11-14T10:29:40.379Z,16.83
2018-11-14T10:32:08.134Z,16.73
2018-11-14T10:34:35.860Z,16.40
2018-11-14T10:37:03.961Z,17.17
2018-11-14T10:39:31.737Z,17.73
2018-11-14T10:41:59.460Z,17.13
2018-11-14T10:44:27.197Z,15.90
2018-11-14T10:46:55.760Z,15.77
2018-11-14T10:49:23.458Z,18.27
2018-11-14T10:51:51.176Z,17.67
2018-11-14T10:54:18.871Z,18.23
2018-11-14T10:56:46.570Z,17.83
2018-11-14T10:59:14.408Z,18.50
2018-11-14T11:01:47.731Z,19.40
2018-11-14T11:04:21.156Z,18.63
2018-11-14T11:06:54.608Z,19.60
2018-11-14T11:09:27.890Z,18.87
2018-11-14T11:12:01.361Z,19.13
2018-11-14T11:14:31.818Z,18.23
2018-11-14T11:17:05.110Z,19.13
2018-11-14T11:19:32.832Z,18.97
2018-11-14T11:22:00.527Z,18.50
2018-11-14T11:24:28.264Z,19.00
2018-11-14T11:26:56.001Z,18.90
2018-11-14T11:29:23.679Z,17.90
2018-11-14T11:31:51.406Z,18.47
2018-11-14T11:34:19.184Z,16.80
2018-11-14T11:36:46.921Z,17.10
2018-11-14T11:39:16.030Z,22.40
2018-11-14T11:41:44.389Z,18.37
2018-11-14T11:44:12.223Z,19.17
2018-11-14T11:46:40.929Z,18.70
2018-11-14T11:49:09.129Z,19.63
2018-11-14T11:51:36.821Z,21.60
2018-11-14T11:54:04.997Z,24.10
2018-11-14T11:56:32.819Z,20.03
2018-11-14T11:59:00.620Z,18.87
2018-11-14T12:01:28.322Z,20.13
2018-11-14T12:03:56.051Z,20.23
2018-11-14T12:06:23.742Z,19.50
2018-11-14T12:08:51.433Z,20.03
2018-11-14T12:11:19.189Z,20.30
2018-11-14T12:13:46.963Z,19.57
2018-11-14T12:16:14.641Z,20.80
2018-11-14T12:18:42.363Z,23.33
2018-11-14T12:21:10.165Z,23.87
2018-11-14T12:23:37.949Z,22.53
2018-11-14T12:26:05.753Z,21.20
2018-11-14T12:28:33.477Z,23.30
2018-11-14T12:31:01.393Z,23.17
2018-11-14T12:33:28.898Z,23.37
2018-11-14T12:35:56.578Z,23.03
2018-11-14T12:38:24.351Z,24.70
2018-11-14T12:40:52.227Z,23.47
2018-11-14T12:43:20.035Z,24.47
2018-11-14T12:45:47.775Z,24.20
2018-11-14T12:48:16.081Z,23.20
2018-11-14T12:50:43.784Z,23.13
2018-11-14T12:53:11.443Z,24.57
2018-11-14T12:55:39.167Z,23.23
2018-11-14T12:58:06.899Z,25.00
2018-11-14T13:03:47.335Z,24.60
2018-11-14T13:06:15.551Z,26.47
2018-11-14T13:08:44.354Z,27.57
2018-11-14T13:11:16.521Z,27.57
2018-11-14T13:13:47.264Z,27.90
2018-11-14T13:16:17.820Z,31.87
2018-11-14T13:18:54.317Z,34.30
2018-11-14T13:21:22.139Z,34.77
2018-11-14T13:23:49.811Z,33.97
2018-11-14T13:26:17.729Z,31.83
2018-11-14T13:28:45.741Z,27.90
2018-11-14T13:31:13.631Z,22.10
2018-11-14T13:33:42.035Z,24.97
2018-11-14T13:36:09.831Z,22.57
2018-11-14T13:38:37.501Z,20.37
2018-11-14T13:41:05.399Z,23.60
2018-11-14T13:43:33.141Z,24.10
2018-11-14T13:46:00.835Z,24.63
2018-11-14T13:48:30.744Z,26.40
2018-11-14T13:50:58.611Z,24.67
2018-11-14T13:53:26.527Z,24.47
2018-11-14T13:55:54.241Z,24.27
2018-11-14T13:58:21.953Z,26.70
2018-11-14T14:00:49.664Z,28.03
2018-11-14T14:03:17.434Z,31.33
2018-11-14T14:05:46.224Z,27.63
2018-11-14T14:08:13.949Z,37.37
2018-11-14T14:21:00.852Z,28.47
2018-11-14T14:23:28.626Z,28.43
2018-11-14T14:25:56.419Z,28.60
2018-11-14T14:28:24.119Z,27.07
2018-11-14T14:30:51.960Z,31.73
2018-11-14T14:33:19.583Z,27.90
2018-11-14T14:59:35.210Z,36.17
2018-11-14T15:02:02.979Z,43.97
2018-11-14T15:04:30.738Z,40.63
2018-11-14T15:06:58.469Z,30.00
2018-11-14T15:09:26.222Z,30.40
2018-11-14T15:11:53.915Z,28.67
2018-11-14T15:14:21.627Z,30.93
2018-11-14T15:16:49.378Z,28.27
2018-11-14T15:19:17.057Z,29.90
2018-11-14T15:21:44.709Z,32.13
2018-11-14T15:24:12.403Z,31.40
2018-11-14T15:26:41.208Z,32.60
2018-11-14T15:29:08.896Z,30.10
2018-11-14T15:31:36.628Z,34.70
2018-11-14T15:34:05.075Z,36.90
2018-11-14T15:36:32.783Z,38.37
2018-11-14T15:39:00.485Z,43.13
2018-11-14T15:41:28.204Z,44.07
2018-11-14T15:43:55.945Z,42.30
2018-11-14T15:46:23.681Z,38.83
2018-11-14T15:48:51.357Z,37.37
2018-11-14T15:51:20.724Z,36.93
2018-11-14T15:53:48.455Z,36.80
2018-11-14T15:56:16.197Z,31.13
2018-11-14T15:58:43.920Z,30.07
2018-11-14T16:01:11.653Z,30.63
2018-11-14T16:03:39.475Z,31.27
2018-11-14T16:06:07.371Z,99.10
2018-11-14T16:08:35.105Z,40.60
2018-11-14T16:11:02.923Z,33.30
2018-11-14T16:13:30.663Z,37.50
2018-11-14T16:15:58.435Z,35.80
2018-11-14T16:18:26.213Z,28.07
2018-11-14T16:20:53.902Z,30.33
2018-11-14T16:23:21.684Z,26.57
2018-11-14T16:25:49.413Z,26.67
2018-11-14T16:28:17.167Z,26.43
2018-11-14T16:30:44.877Z,27.83
2018-11-14T16:33:12.592Z,25.60
2018-11-14T16:35:40.325Z,35.83
2018-11-14T16:38:08.095Z,29.00
2018-11-14T16:40:35.890Z,31.63
2018-11-14T16:43:06.372Z,26.57
2018-11-14T16:45:34.068Z,29.20
2018-11-14T16:48:01.761Z,40.13
2018-11-14T16:50:29.477Z,28.90
2018-11-14T16:52:58.419Z,37.77
2018-11-14T16:55:26.173Z,27.80
2018-11-14T16:58:09.271Z,29.20
2018-11-14T17:00:37.125Z,25.37
2018-11-14T17:03:05.031Z,29.80
2018-11-14T17:05:33.157Z,29.13
2018-11-14T17:08:01.650Z,31.67
2018-11-14T17:10:30.896Z,30.00
2018-11-14T17:12:59.623Z,29.13
2018-11-14T17:15:27.668Z,30.97
2018-11-14T17:17:55.375Z,27.60
2018-11-14T17:20:23.478Z,29.73
2018-11-14T17:22:52.822Z,32.37
2018-11-14T17:25:20.743Z,32.03
2018-11-14T17:27:48.781Z,54.87
2018-11-14T17:30:18.040Z,29.93
2018-11-14T17:32:46.026Z,32.90
2018-11-14T17:35:14.492Z,35.07
2018-11-14T17:37:43.117Z,31.87
2018-11-14T17:40:13.809Z,34.40
2018-11-14T17:42:42.343Z,40.43
2018-11-14T17:45:12.502Z,41.73
2018-11-14T17:47:40.282Z,37.87
2018-11-14T17:50:12.297Z,33.07
2018-11-14T17:52:40.157Z,37.20
2018-11-14T17:55:09.668Z,35.63
2018-11-14T17:57:37.427Z,34.63
2018-11-14T18:00:06.933Z,37.03
2018-11-14T18:05:11.429Z,35.23
2018-11-14T18:07:39.140Z,32.93
2018-11-14T18:10:14.997Z,25.13
2018-11-14T18:12:43.635Z,34.90
2018-11-14T18:15:11.935Z,35.70
2018-11-14T18:17:40.077Z,38.80
2018-11-14T18:20:10.244Z,37.13
2018-11-14T18:22:38.596Z,42.93
2018-11-14T18:25:06.422Z,44.43
2018-11-14T18:27:34.082Z,75.83
2018-11-14T18:30:01.844Z,74.10
2018-11-14T18:32:29.674Z,90.53
2018-11-14T18:34:57.335Z,38.77
2018-11-14T18:37:25.138Z,37.60
2018-11-14T18:39:52.856Z,38.03
2018-11-14T18:42:20.584Z,33.97
2018-11-14T18:44:48.433Z,33.77
2018-11-14T18:47:16.273Z,32.70
2018-11-14T18:49:44.055Z,35.70
2018-11-14T18:52:11.915Z,34.20
2018-11-14T18:54:39.984Z,31.07
2018-11-14T18:57:08.124Z,32.10
2018-11-14T18:59:35.820Z,31.70
2018-11-14T19:02:03.598Z,32.20
2018-11-14T19:04:31.316Z,32.37
2018-11-14T19:06:59.288Z,38.53
2018-11-14T19:09:27.047Z,37.53
2018-11-14T19:11:54.769Z,40.93
2018-11-14T19:14:22.484Z,37.30
2018-11-14T19:16:50.255Z,44.07
2018-11-14T19:19:17.954Z,42.63
2018-11-14T19:21:45.712Z,47.17
2018-11-14T19:24:13.575Z,47.60
2018-11-14T19:26:41.603Z,46.00
2018-11-14T19:29:09.403Z,37.47
2018-11-14T19:31:37.203Z,40.03
2018-11-14T19:34:05.219Z,37.53
2018-11-14T19:36:32.941Z,36.30
2018-11-14T19:39:00.757Z,37.07
2018-11-14T19:41:28.773Z,35.53
2018-11-14T19:43:56.477Z,34.73
2018-11-14T19:46:24.258Z,40.03
2018-11-14T19:48:52.002Z,38.83
2018-11-14T19:51:19.729Z,38.10
2018-11-14T19:53:47.452Z,41.90
2018-11-14T19:56:15.188Z,42.43
2018-11-14T19:58:42.982Z,35.13
2018-11-14T20:01:10.819Z,40.27
2018-11-14T20:03:38.563Z,35.63
2018-11-14T20:06:06.850Z,32.23
2018-11-14T20:08:34.668Z,31.47
2018-11-14T20:11:02.465Z,35.20
2018-11-14T20:13:30.347Z,29.03
2018-11-14T20:15:58.315Z,28.60
2018-11-14T20:18:26.067Z,30.17
2018-11-14T20:20:53.982Z,30.40
2018-11-14T20:23:21.720Z,30.50
2018-11-14T20:25:49.577Z,31.80
2018-11-14T20:28:17.287Z,31.23
2018-11-14T20:30:45.060Z,29.97
2018-11-14T20:33:13.512Z,32.57
2018-11-14T20:35:41.430Z,33.10
2018-11-14T20:38:10.028Z,35.03
2018-11-14T20:40:39.272Z,36.60
2018-11-14T20:43:07.355Z,34.70
2018-11-14T20:45:35.444Z,37.10
2018-11-14T20:48:03.187Z,32.23
2018-11-14T20:50:30.899Z,32.17
2018-11-14T20:53:00.534Z,32.33
2018-11-14T20:55:28.779Z,37.23
2018-11-14T20:57:56.858Z,36.30
2018-11-14T21:00:33.710Z,36.47
2018-11-14T21:03:01.562Z,34.63
2018-11-14T21:05:29.738Z,33.40
2018-11-14T21:07:57.516Z,33.63
2018-11-14T21:10:29.521Z,36.17
2018-11-14T21:12:57.799Z,32.40
2018-11-14T21:15:31.819Z,34.13
2018-11-14T21:18:00.407Z,32.70
2018-11-14T21:20:28.227Z,33.87
2018-11-14T21:22:56.076Z,36.43
2018-11-14T21:25:24.583Z,33.97
2018-11-14T21:27:52.971Z,33.20
2018-11-14T21:30:22.066Z,35.17
2018-11-14T21:32:49.901Z,33.67
2018-11-14T21:35:21.013Z,32.73
2018-11-14T21:37:56.701Z,34.13
2018-11-14T21:40:24.508Z,31.00
2018-11-14T21:42:52.296Z,35.00
2018-11-14T21:45:21.475Z,31.70
2018-11-14T21:47:54.839Z,29.37
2018-11-14T21:50:23.980Z,29.90
2018-11-14T21:52:51.750Z,30.23
2018-11-14T21:55:19.505Z,29.13
2018-11-14T21:57:47.282Z,30.43
2018-11-14T22:00:17.938Z,30.07
2018-11-14T22:02:47.159Z,34.80
2018-11-14T22:05:14.935Z,34.37
2018-11-14T22:07:42.684Z,38.33
2018-11-14T22:10:13.852Z,41.03
2018-11-14T22:12:42.294Z,43.87
2018-11-14T22:15:10.614Z,47.90
2018-11-14T22:17:38.852Z,37.83
2018-11-14T22:20:08.673Z,32.37
2018-11-14T22:22:36.450Z,30.27
2018-11-14T22:25:04.306Z,25.67
2018-11-14T22:27:32.022Z,27.43
2018-11-14T22:29:59.746Z,28.23
2018-11-14T22:32:27.922Z,27.47
2018-11-14T22:34:55.747Z,28.60
2018-11-14T22:37:23.490Z,24.87
2018-11-14T22:39:51.405Z,26.67
2018-11-14T22:42:20.289Z,23.87
2018-11-14T22:44:48.062Z,23.03
2018-11-14T22:47:16.124Z,24.27
2018-11-14T22:49:43.838Z,24.60
2018-11-14T22:52:11.608Z,24.57
2018-11-14T22:54:39.445Z,23.50
2018-11-14T22:57:07.204Z,24.07
2018-11-14T22:59:34.959Z,23.07
2018-11-14T23:02:02.720Z,23.23
2018-11-14T23:04:30.470Z,24.47
2018-11-14T23:06:58.206Z,24.33
2018-11-14T23:09:25.937Z,23.40
2018-11-14T23:11:53.643Z,22.33
2018-11-14T23:14:21.371Z,23.03
2018-11-14T23:16:49.133Z,20.67
2018-11-14T23:19:16.864Z,20.33
2018-11-14T23:21:44.599Z,21.90
2018-11-14T23:24:12.310Z,20.60
2018-11-14T23:26:39.996Z,20.67
2018-11-14T23:29:07.702Z,22.97
2018-11-14T23:31:35.436Z,24.97
2018-11-14T23:34:03.206Z,24.73
2018-11-14T23:36:30.937Z,24.30
2018-11-14T23:38:58.695Z,25.10
2018-11-14T23:41:26.406Z,24.30
2018-11-14T23:43:54.155Z,25.60
2018-11-14T23:46:21.958Z,26.73
2018-11-14T23:48:49.666Z,25.53
2018-11-14T23:51:17.411Z,26.73
2018-11-14T23:53:45.597Z,24.47
2018-11-14T23:56:13.301Z,24.00
2018-11-14T23:58:41.014Z,24.87
